Terminal Aerodrome Forecast
Issued by NWS

Home | Current Version | Previous Version | Text Only | Print | Product List | Glossary On
Versions: 1 2 3 4 5 6 7 8 9 10 11 12 13 14 15
000
FTUS45 KLKN 232300
TAFWMC
TAF
KWMC 232320Z 2400/2424 23010G18KT P6SM SCT080
     FM240400 23007KT P6SM BKN070 OVC120
     FM241700 25010G20KT P6SM VCSH BKN070=

USA.gov is the U.S. government's official web portal to all federal, state and local government web resources and services.